sensor_id;sensor_type;location;lat;lon;timestamp;pressure;altitude;pressure_sealevel;temperature;humidity
30463;BME280;17256;43.618;25.336;2023-05-20T00:15:35;101046.34;;;15.80;100.00
30463;BME280;17256;43.618;25.336;2023-05-20T00:18:58;101047.38;;;15.86;100.00
30463;BME280;17256;43.618;25.336;2023-05-20T00:22:05;100913.06;;;15.07;100.00
30463;BME280;17256;43.618;25.336;2023-05-20T00:24:34;100908.47;;;14.94;100.00
30463;BME280;17256;43.618;25.336;2023-05-20T00:27:07;100929.41;;;15.15;100.00
30463;BME280;17256;43.618;25.336;2023-05-20T00:29:45;101042.09;;;15.78;100.00
30463;BME280;17256;43.618;25.336;2023-05-20T00:32:16;100909.97;;;14.90;100.00
30463;BME280;17256;43.618;25.336;2023-05-20T00:35:08;100645.41;;;13.25;100.00
30463;BME280;17256;43.618;25.336;2023-05-20T00:37:38;100836.75;;;14.55;100.00
30463;BME280;17256;43.618;25.336;2023-05-20T00:40:10;100780.41;;;14.04;100.00
30463;BME280;17256;43.618;25.336;2023-05-20T00:42:38;100875.09;;;14.44;100.00
30463;BME280;17256;43.618;25.336;2023-05-20T00:45:09;101028.78;;;15.55;100.00
30463;BME280;17256;43.618;25.336;2023-05-20T00:47:37;100589.63;;;13.16;100.00
30463;BME280;17256;43.618;25.336;2023-05-20T00:51:16;100652.38;;;13.47;100.00
30463;BME280;17256;43.618;25.336;2023-05-20T00:54:24;101028.31;;;15.71;100.00
30463;BME280;17256;43.618;25.336;2023-05-20T00:57:36;100740.28;;;14.02;100.00
30463;BME280;17256;43.618;25.336;2023-05-20T01:04:23;100734.13;;;14.00;100.00
30463;BME280;17256;43.618;25.336;2023-05-20T01:07:18;100999.38;;;15.67;100.00
30463;BME280;17256;43.618;25.336;2023-05-20T01:10:35;100654.44;;;13.59;100.00
30463;BME280;17256;43.618;25.336;2023-05-20T01:13:08;100732.78;;;14.09;100.00
30463;BME280;17256;43.618;25.336;2023-05-20T01:16:09;101002.78;;;15.69;100.00
30463;BME280;17256;43.618;25.336;2023-05-20T01:23:22;101000.44;;;15.66;100.00
30463;BME280;17256;43.618;25.336;2023-05-20T01:30:13;100546.00;;;12.87;100.00
30463;BME280;17256;43.618;25.336;2023-05-20T01:33:13;100998.78;;;15.58;100.00
30463;BME280;17256;43.618;25.336;2023-05-20T01:36:07;100810.66;;;14.37;100.00
30463;BME280;17256;43.618;25.336;2023-05-20T01:38:47;100989.25;;;15.48;100.00
30463;BME280;17256;43.618;25.336;2023-05-20T01:41:40;100708.91;;;13.90;100.00
30463;BME280;17256;43.618;25.336;2023-05-20T01:48:18;100976.41;;;15.53;100.00
30463;BME280;17256;43.618;25.336;2023-05-20T01:51:28;100972.84;;;15.46;100.00
30463;BME280;17256;43.618;25.336;2023-05-20T01:55:13;100787.50;;;14.38;100.00
30463;BME280;17256;43.618;25.336;2023-05-20T02:01:50;100508.53;;;12.59;100.00
30463;BME280;17256;43.618;25.336;2023-05-20T02:05:05;100567.63;;;12.97;100.00
30463;BME280;17256;43.618;25.336;2023-05-20T02:15:41;100564.69;;;12.72;100.00
30463;BME280;17256;43.618;25.336;2023-05-20T02:18:27;100962.69;;;15.33;100.00
30463;BME280;17256;43.618;25.336;2023-05-20T02:21:40;100968.22;;;15.33;100.00
30463;BME280;17256;43.618;25.336;2023-05-20T02:28:55;100607.22;;;13.09;100.00
30463;BME280;17256;43.618;25.336;2023-05-20T02:43:50;100681.22;;;13.38;100.00
30463;BME280;17256;43.618;25.336;2023-05-20T02:48:09;100989.75;;;15.31;100.00
30463;BME280;17256;43.618;25.336;2023-05-20T02:51:49;100718.75;;;13.66;100.00
30463;BME280;17256;43.618;25.336;2023-05-20T02:54:55;100994.22;;;15.32;100.00
30463;BME280;17256;43.618;25.336;2023-05-20T02:57:25;100642.44;;;13.13;100.00
30463;BME280;17256;43.618;25.336;2023-05-20T02:59:57;100598.16;;;12.88;100.00
30463;BME280;17256;43.618;25.336;2023-05-20T03:02:25;100665.13;;;13.29;100.00
30463;BME280;17256;43.618;25.336;2023-05-20T03:04:51;101033.78;;;15.39;100.00
30463;BME280;17256;43.618;25.336;2023-05-20T03:07:19;100839.63;;;14.22;100.00
30463;BME280;17256;43.618;25.336;2023-05-20T03:09:48;100772.63;;;13.88;100.00
30463;BME280;17256;43.618;25.336;2023-05-20T03:12:26;100742.50;;;13.73;100.00
30463;BME280;17256;43.618;25.336;2023-05-20T03:15:51;100932.00;;;14.65;100.00
30463;BME280;17256;43.618;25.336;2023-05-20T03:18:53;100923.41;;;14.80;100.00
30463;BME280;17256;43.618;25.336;2023-05-20T03:29:50;100807.03;;;14.37;100.00
30463;BME280;17256;43.618;25.336;2023-05-20T03:32:17;100736.38;;;13.65;100.00
30463;BME280;17256;43.618;25.336;2023-05-20T03:34:43;101038.94;;;15.74;100.00
30463;BME280;17256;43.618;25.336;2023-05-20T03:37:15;100630.31;;;13.34;100.00
30463;BME280;17256;43.618;25.336;2023-05-20T03:39:50;100643.66;;;13.37;100.00
30463;BME280;17256;43.618;25.336;2023-05-20T03:42:19;101069.91;;;15.96;100.00
30463;BME280;17256;43.618;25.336;2023-05-20T03:44:46;100675.66;;;13.65;100.00
30463;BME280;17256;43.618;25.336;2023-05-20T03:47:15;100642.19;;;13.48;100.00
30463;BME280;17256;43.618;25.336;2023-05-20T03:49:46;101027.53;;;16.20;100.00
30463;BME280;17256;43.618;25.336;2023-05-20T03:52:16;100668.47;;;14.02;100.00
30463;BME280;17256;43.618;25.336;2023-05-20T03:54:45;100642.66;;;13.83;100.00
30463;BME280;17256;43.618;25.336;2023-05-20T03:57:31;101054.78;;;16.48;100.00
30463;BME280;17256;43.618;25.336;2023-05-20T04:00:03;100621.31;;;13.59;100.00
30463;BME280;17256;43.618;25.336;2023-05-20T04:02:41;101062.34;;;16.35;100.00
30463;BME280;17256;43.618;25.336;2023-05-20T04:05:10;100633.81;;;13.61;100.00
30463;BME280;17256;43.618;25.336;2023-05-20T04:12:08;101074.75;;;16.57;100.00
30463;BME280;17256;43.618;25.336;2023-05-20T04:20:24;100648.69;;;14.05;100.00
30463;BME280;17256;43.618;25.336;2023-05-20T04:23:15;100848.22;;;15.59;100.00
30463;BME280;17256;43.618;25.336;2023-05-20T04:25:42;101051.03;;;16.86;100.00
30463;BME280;17256;43.618;25.336;2023-05-20T04:28:09;100941.63;;;16.20;100.00
30463;BME280;17256;43.618;25.336;2023-05-20T05:00:44;100670.31;;;16.30;100.00
30463;BME280;17256;43.618;25.336;2023-05-20T05:04:08;101101.88;;;18.85;100.00
30463;BME280;17256;43.618;25.336;2023-05-20T05:06:56;100705.13;;;16.56;100.00
30463;BME280;17256;43.618;25.336;2023-05-20T05:09:32;100891.53;;;17.78;100.00
30463;BME280;17256;43.618;25.336;2023-05-20T05:12:27;100696.81;;;17.10;100.00
30463;BME280;17256;43.618;25.336;2023-05-20T05:15:18;101034.84;;;19.38;100.00
30463;BME280;17256;43.618;25.336;2023-05-20T05:18:06;100759.34;;;18.06;100.00
30463;BME280;17256;43.618;25.336;2023-05-20T05:20:39;100962.50;;;19.15;100.00
30463;BME280;17256;43.618;25.336;2023-05-20T05:23:20;101040.03;;;19.75;100.00
30463;BME280;17256;43.618;25.336;2023-05-20T05:25:55;100942.25;;;19.48;100.00
30463;BME280;17256;43.618;25.336;2023-05-20T05:28:25;100997.31;;;19.69;100.00
30463;BME280;17256;43.618;25.336;2023-05-20T05:31:14;100834.50;;;19.03;100.00
30463;BME280;17256;43.618;25.336;2023-05-20T05:33:55;100815.00;;;18.86;100.00
30463;BME280;17256;43.618;25.336;2023-05-20T05:36:25;101034.41;;;20.65;100.00
30463;BME280;17256;43.618;25.336;2023-05-20T05:39:00;101000.41;;;20.51;100.00
30463;BME280;17256;43.618;25.336;2023-05-20T05:41:41;100698.84;;;18.36;100.00
30463;BME280;17256;43.618;25.336;2023-05-20T06:17:35;100921.59;;;19.44;100.00
30463;BME280;17256;43.618;25.336;2023-05-20T06:20:01;100831.81;;;18.80;100.00
30463;BME280;17256;43.618;25.336;2023-05-20T06:22:53;100827.22;;;18.85;100.00
30463;BME280;17256;43.618;25.336;2023-05-20T06:25:27;100859.47;;;19.43;100.00
30463;BME280;17256;43.618;25.336;2023-05-20T06:27:53;100876.72;;;19.12;100.00
30463;BME280;17256;43.618;25.336;2023-05-20T06:30:20;100861.38;;;18.97;100.00
30463;BME280;17256;43.618;25.336;2023-05-20T06:32:47;101068.00;;;20.08;100.00
30463;BME280;17256;43.618;25.336;2023-05-20T06:35:13;100975.91;;;20.20;100.00
30463;BME280;17256;43.618;25.336;2023-05-20T06:37:38;101036.56;;;20.80;100.00
30463;BME280;17256;43.618;25.336;2023-05-20T06:40:05;100913.78;;;20.41;100.00
30463;BME280;17256;43.618;25.336;2023-05-20T06:42:31;100906.50;;;20.23;100.00
30463;BME280;17256;43.618;25.336;2023-05-20T06:45:04;101107.09;;;21.69;100.00
30463;BME280;17256;43.618;25.336;2023-05-20T06:47:36;100903.19;;;20.26;100.00
30463;BME280;17256;43.618;25.336;2023-05-20T06:50:02;101039.38;;;21.02;100.00
30463;BME280;17256;43.618;25.336;2023-05-20T06:52:42;100891.97;;;20.21;99.95
30463;BME280;17256;43.618;25.336;2023-05-20T06:55:34;100916.50;;;19.69;100.00
30463;BME280;17256;43.618;25.336;2023-05-20T06:58:04;101025.47;;;20.01;100.00
30463;BME280;17256;43.618;25.336;2023-05-20T07:10:59;101121.53;;;21.61;100.00
30463;BME280;17256;43.618;25.336;2023-05-20T07:13:38;100917.19;;;20.65;100.00
30463;BME280;17256;43.618;25.336;2023-05-20T07:16:04;101059.06;;;21.50;100.00
30463;BME280;17256;43.618;25.336;2023-05-20T07:26:59;100865.06;;;20.10;100.00
30463;BME280;17256;43.618;25.336;2023-05-20T07:33:23;100776.22;;;20.19;100.00
30463;BME280;17256;43.618;25.336;2023-05-20T07:35:54;101049.31;;;21.80;95.78
30463;BME280;17256;43.618;25.336;2023-05-20T09:02:40;100844.63;;;20.26;100.00
30463;BME280;17256;43.618;25.336;2023-05-20T09:05:32;100725.53;;;19.61;100.00
30463;BME280;17256;43.618;25.336;2023-05-20T09:09:01;100956.47;;;21.24;100.00
30463;BME280;17256;43.618;25.336;2023-05-20T11:54:43;100717.38;;;22.90;65.04
30463;BME280;17256;43.618;25.336;2023-05-20T11:57:50;100640.56;;;22.35;64.60
30463;BME280;17256;43.618;25.336;2023-05-20T12:00:49;100948.16;;;24.28;65.09
30463;BME280;17256;43.618;25.336;2023-05-20T12:04:51;100939.34;;;24.85;64.78
30463;BME280;17256;43.618;25.336;2023-05-20T12:30:55;100754.22;;;24.84;59.22
30463;BME280;17256;43.618;25.336;2023-05-20T13:50:29;100682.72;;;26.59;54.10
30463;BME280;17256;43.618;25.336;2023-05-20T13:56:41;100693.06;;;26.82;51.78
30463;BME280;17256;43.618;25.336;2023-05-20T13:59:07;100691.09;;;26.64;53.52
30463;BME280;17256;43.618;25.336;2023-05-20T14:02:09;100800.06;;;26.87;54.89
30463;BME280;17256;43.618;25.336;2023-05-20T14:04:50;100696.34;;;25.56;55.79
30463;BME280;17256;43.618;25.336;2023-05-20T14:07:19;100550.31;;;24.10;56.07
30463;BME280;17256;43.618;25.336;2023-05-20T14:09:46;100748.53;;;24.99;57.58
30463;BME280;17256;43.618;25.336;2023-05-20T14:12:15;100592.06;;;23.52;58.48
30463;BME280;17256;43.618;25.336;2023-05-20T14:21:35;100651.56;;;22.83;70.05
30463;BME280;17256;43.618;25.336;2023-05-20T14:24:43;100826.97;;;23.35;79.96
30463;BME280;17256;43.618;25.336;2023-05-20T14:28:14;100799.78;;;23.35;84.55
30463;BME280;17256;43.618;25.336;2023-05-20T14:32:10;100794.44;;;23.39;85.43
30463;BME280;17256;43.618;25.336;2023-05-20T14:38:18;100707.91;;;22.08;89.72
30463;BME280;17256;43.618;25.336;2023-05-20T14:41:00;100563.84;;;21.33;88.98
30463;BME280;17256;43.618;25.336;2023-05-20T14:43:41;100722.81;;;22.34;94.77
30463;BME280;17256;43.618;25.336;2023-05-20T14:46:09;100653.44;;;21.74;94.42
30463;BME280;17256;43.618;25.336;2023-05-20T14:48:34;100416.84;;;20.27;86.79
30463;BME280;17256;43.618;25.336;2023-05-20T14:51:06;100537.84;;;20.85;92.34
30463;BME280;17256;43.618;25.336;2023-05-20T15:02:58;100661.50;;;22.18;87.22
30463;BME280;17256;43.618;25.336;2023-05-20T15:05:37;100691.22;;;22.44;85.44
30463;BME280;17256;43.618;25.336;2023-05-20T15:08:27;100458.63;;;21.02;84.62
30463;BME280;17256;43.618;25.336;2023-05-20T15:11:00;100783.50;;;23.07;85.81
30463;BME280;17256;43.618;25.336;2023-05-20T15:23:02;100380.25;;;20.56;86.43
30463;BME280;17256;43.618;25.336;2023-05-20T15:25:39;100539.88;;;21.53;90.34
30463;BME280;17256;43.618;25.336;2023-05-20T15:33:50;100678.72;;;21.94;94.06
30463;BME280;17256;43.618;25.336;2023-05-20T15:39:39;100431.16;;;20.04;96.60
30463;BME280;17256;43.618;25.336;2023-05-20T15:42:10;100394.88;;;19.62;98.79
30463;BME280;17256;43.618;25.336;2023-05-20T15:45:04;100525.81;;;20.48;99.94
30463;BME280;17256;43.618;25.336;2023-05-20T15:47:58;100673.38;;;21.40;100.00
30463;BME280;17256;43.618;25.336;2023-05-20T15:50:26;100457.28;;;19.93;100.00
30463;BME280;17256;43.618;25.336;2023-05-20T15:52:54;100554.25;;;20.45;100.00
30463;BME280;17256;43.618;25.336;2023-05-20T15:55:27;100546.25;;;20.26;100.00
30463;BME280;17256;43.618;25.336;2023-05-20T15:57:58;100745.09;;;21.30;100.00
30463;BME280;17256;43.618;25.336;2023-05-20T16:00:24;100448.50;;;19.79;100.00
30463;BME280;17256;43.618;25.336;2023-05-20T16:02:50;100550.94;;;20.48;100.00
30463;BME280;17256;43.618;25.336;2023-05-20T16:05:41;100766.63;;;21.66;100.00
30463;BME280;17256;43.618;25.336;2023-05-20T16:33:51;100377.97;;;18.98;100.00
30463;BME280;17256;43.618;25.336;2023-05-20T16:59:42;100406.31;;;19.17;100.00
30463;BME280;17256;43.618;25.336;2023-05-20T17:02:12;100633.09;;;20.62;100.00
30463;BME280;17256;43.618;25.336;2023-05-20T17:45:02;100360.88;;;17.73;100.00
30463;BME280;17256;43.618;25.336;2023-05-20T17:47:30;100365.66;;;17.61;100.00
30463;BME280;17256;43.618;25.336;2023-05-20T17:50:22;100557.78;;;18.82;100.00
30463;BME280;17256;43.618;25.336;2023-05-20T17:55:58;100589.94;;;18.90;100.00
30463;BME280;17256;43.618;25.336;2023-05-20T17:58:30;100513.66;;;18.35;100.00
30463;BME280;17256;43.618;25.336;2023-05-20T18:01:11;100558.09;;;18.64;100.00
30463;BME280;17256;43.618;25.336;2023-05-20T18:03:41;100692.94;;;19.28;100.00
30463;BME280;17256;43.618;25.336;2023-05-20T18:06:10;100462.75;;;17.85;100.00
30463;BME280;17256;43.618;25.336;2023-05-20T18:08:36;100497.28;;;17.89;100.00
30463;BME280;17256;43.618;25.336;2023-05-20T18:28:44;100632.72;;;18.10;100.00
30463;BME280;17256;43.618;25.336;2023-05-20T18:31:10;100589.47;;;17.74;100.00
30463;BME280;17256;43.618;25.336;2023-05-20T18:33:36;100645.41;;;18.06;100.00
30463;BME280;17256;43.618;25.336;2023-05-20T18:36:02;100563.13;;;17.36;100.00
30463;BME280;17256;43.618;25.336;2023-05-20T18:38:44;100480.47;;;16.75;100.00
30463;BME280;17256;43.618;25.336;2023-05-20T18:41:10;100573.41;;;17.24;100.00
30463;BME280;17256;43.618;25.336;2023-05-20T18:43:36;100671.47;;;17.65;100.00
30463;BME280;17256;43.618;25.336;2023-05-20T18:46:02;100573.44;;;16.89;100.00
30463;BME280;17256;43.618;25.336;2023-05-20T18:48:28;100676.03;;;17.59;100.00
30463;BME280;17256;43.618;25.336;2023-05-20T18:50:55;100649.41;;;17.46;100.00
30463;BME280;17256;43.618;25.336;2023-05-20T18:53:20;100621.03;;;17.33;100.00
30463;BME280;17256;43.618;25.336;2023-05-20T18:55:47;100504.59;;;16.74;100.00
30463;BME280;17256;43.618;25.336;2023-05-20T18:58:12;100575.34;;;17.00;100.00
30463;BME280;17256;43.618;25.336;2023-05-20T19:00:39;100770.44;;;18.18;100.00
30463;BME280;17256;43.618;25.336;2023-05-20T19:03:06;100588.50;;;17.16;100.00
30463;BME280;17256;43.618;25.336;2023-05-20T19:05:32;100546.13;;;17.09;100.00
30463;BME280;17256;43.618;25.336;2023-05-20T19:07:58;100565.31;;;17.22;100.00
30463;BME280;17256;43.618;25.336;2023-05-20T19:16:02;100509.16;;;16.92;100.00
30463;BME280;17256;43.618;25.336;2023-05-20T19:18:30;100398.50;;;16.32;100.00
30463;BME280;17256;43.618;25.336;2023-05-20T19:21:05;100649.09;;;17.83;100.00
30463;BME280;17256;43.618;25.336;2023-05-20T19:24:05;100472.53;;;16.67;100.00
30463;BME280;17256;43.618;25.336;2023-05-20T19:31:31;100781.94;;;18.50;100.00
30463;BME280;17256;43.618;25.336;2023-05-20T19:35:05;100386.81;;;16.07;100.00
30463;BME280;17256;43.618;25.336;2023-05-20T19:47:00;100786.38;;;18.22;100.00
30463;BME280;17256;43.618;25.336;2023-05-20T19:50:13;100633.13;;;17.27;100.00
30463;BME280;17256;43.618;25.336;2023-05-20T19:52:39;100597.56;;;17.00;100.00
30463;BME280;17256;43.618;25.336;2023-05-20T19:55:05;100579.69;;;16.61;100.00
30463;BME280;17256;43.618;25.336;2023-05-20T19:57:33;100619.03;;;16.93;100.00
30463;BME280;17256;43.618;25.336;2023-05-20T20:01:09;100652.31;;;17.05;100.00
30463;BME280;17256;43.618;25.336;2023-05-20T20:03:58;100576.75;;;16.56;100.00
30463;BME280;17256;43.618;25.336;2023-05-20T20:07:01;100797.31;;;17.77;100.00
30463;BME280;17256;43.618;25.336;2023-05-20T20:22:33;100391.84;;;15.03;100.00
30463;BME280;17256;43.618;25.336;2023-05-20T20:25:00;100596.94;;;16.21;100.00
30463;BME280;17256;43.618;25.336;2023-05-20T20:27:29;100404.75;;;15.09;100.00
30463;BME280;17256;43.618;25.336;2023-05-20T20:29:57;100777.56;;;17.32;100.00
30463;BME280;17256;43.618;25.336;2023-05-20T20:32:22;100703.16;;;16.75;100.00
30463;BME280;17256;43.618;25.336;2023-05-20T20:34:51;100771.78;;;17.21;100.00
30463;BME280;17256;43.618;25.336;2023-05-20T20:37:18;100611.63;;;16.22;100.00
30463;BME280;17256;43.618;25.336;2023-05-20T20:39:47;100477.72;;;15.26;100.00
30463;BME280;17256;43.618;25.336;2023-05-20T20:42:14;100582.97;;;15.86;100.00
30463;BME280;17256;43.618;25.336;2023-05-20T20:44:40;100649.69;;;16.15;100.00
30463;BME280;17256;43.618;25.336;2023-05-20T20:47:13;100631.06;;;16.04;100.00
30463;BME280;17256;43.618;25.336;2023-05-20T20:49:39;100780.41;;;17.02;100.00
30463;BME280;17256;43.618;25.336;2023-05-20T20:52:05;100602.66;;;15.78;100.00
30463;BME280;17256;43.618;25.336;2023-05-20T20:54:33;100593.94;;;15.63;100.00
30463;BME280;17256;43.618;25.336;2023-05-20T20:56:58;100631.88;;;15.92;100.00
30463;BME280;17256;43.618;25.336;2023-05-20T20:59:27;100772.25;;;16.77;100.00
30463;BME280;17256;43.618;25.336;2023-05-20T21:01:53;100766.81;;;16.70;100.00
30463;BME280;17256;43.618;25.336;2023-05-20T21:04:19;100626.66;;;15.84;100.00
30463;BME280;17256;43.618;25.336;2023-05-20T21:06:46;100505.75;;;15.12;100.00
30463;BME280;17256;43.618;25.336;2023-05-20T21:09:14;100566.63;;;15.30;100.00
30463;BME280;17256;43.618;25.336;2023-05-20T21:11:40;100610.56;;;15.63;100.00
30463;BME280;17256;43.618;25.336;2023-05-20T21:14:10;100602.03;;;15.58;100.00
30463;BME280;17256;43.618;25.336;2023-05-20T21:16:36;100567.47;;;15.30;100.00
30463;BME280;17256;43.618;25.336;2023-05-20T21:19:01;100560.72;;;15.26;100.00
30463;BME280;17256;43.618;25.336;2023-05-20T21:21:27;100693.56;;;15.99;100.00
30463;BME280;17256;43.618;25.336;2023-05-20T21:23:53;100584.75;;;15.26;100.00
30463;BME280;17256;43.618;25.336;2023-05-20T21:26:20;100698.81;;;15.89;100.00
30463;BME280;17256;43.618;25.336;2023-05-20T21:29:31;100415.00;;;14.10;100.00
30463;BME280;17256;43.618;25.336;2023-05-20T21:32:32;100600.69;;;15.12;100.00
30463;BME280;17256;43.618;25.336;2023-05-20T21:35:22;100603.44;;;15.12;100.00
30463;BME280;17256;43.618;25.336;2023-05-20T21:38:16;100498.75;;;14.29;100.00
30463;BME280;17256;43.618;25.336;2023-05-20T21:40:56;100771.72;;;15.83;100.00
30463;BME280;17256;43.618;25.336;2023-05-20T21:43:54;100292.41;;;12.93;100.00
30463;BME280;17256;43.618;25.336;2023-05-20T21:47:03;100479.53;;;14.16;100.00
30463;BME280;17256;43.618;25.336;2023-05-20T21:49:53;100481.47;;;14.15;100.00
30463;BME280;17256;43.618;25.336;2023-05-20T21:53:14;100543.66;;;14.50;100.00
30463;BME280;17256;43.618;25.336;2023-05-20T21:55:40;100470.13;;;13.99;100.00
30463;BME280;17256;43.618;25.336;2023-05-20T21:58:06;100402.47;;;13.65;100.00
30463;BME280;17256;43.618;25.336;2023-05-20T22:00:31;100500.88;;;14.27;100.00
30463;BME280;17256;43.618;25.336;2023-05-20T22:02:57;100555.88;;;14.60;100.00
30463;BME280;17256;43.618;25.336;2023-05-20T22:05:23;100501.28;;;14.31;100.00
30463;BME280;17256;43.618;25.336;2023-05-20T22:07:48;100736.34;;;15.67;100.00
30463;BME280;17256;43.618;25.336;2023-05-20T22:10:20;100576.03;;;14.67;100.00
30463;BME280;17256;43.618;25.336;2023-05-20T22:15:55;100331.94;;;13.19;100.00
30463;BME280;17256;43.618;25.336;2023-05-20T22:18:27;100645.03;;;15.24;100.00
30463;BME280;17256;43.618;25.336;2023-05-20T22:21:29;100713.13;;;15.68;100.00
30463;BME280;17256;43.618;25.336;2023-05-20T22:24:53;100234.63;;;12.80;100.00
30463;BME280;17256;43.618;25.336;2023-05-20T22:28:28;100306.88;;;13.20;100.00
30463;BME280;17256;43.618;25.336;2023-05-20T22:31:45;100668.34;;;15.09;100.00
30463;BME280;17256;43.618;25.336;2023-05-20T22:34:15;100415.06;;;13.79;100.00
30463;BME280;17256;43.618;25.336;2023-05-20T22:36:43;100507.88;;;14.30;100.00
30463;BME280;17256;43.618;25.336;2023-05-20T22:39:09;100570.34;;;14.81;100.00
30463;BME280;17256;43.618;25.336;2023-05-20T22:42:20;100604.50;;;14.93;100.00
30463;BME280;17256;43.618;25.336;2023-05-20T22:44:54;100445.66;;;14.02;100.00
30463;BME280;17256;43.618;25.336;2023-05-20T22:47:50;100708.06;;;15.65;100.00
30463;BME280;17256;43.618;25.336;2023-05-20T22:50:32;100305.88;;;13.08;100.00
30463;BME280;17256;43.618;25.336;2023-05-20T22:53:32;100701.06;;;15.56;100.00
30463;BME280;17256;43.618;25.336;2023-05-20T22:59:13;100228.50;;;12.78;100.00
30463;BME280;17256;43.618;25.336;2023-05-20T23:02:20;100429.72;;;14.04;100.00
30463;BME280;17256;43.618;25.336;2023-05-20T23:04:59;100452.66;;;14.05;100.00
30463;BME280;17256;43.618;25.336;2023-05-20T23:08:20;100701.25;;;15.61;100.00
30463;BME280;17256;43.618;25.336;2023-05-20T23:10:57;100353.34;;;13.48;100.00
30463;BME280;17256;43.618;25.336;2023-05-20T23:13:28;100707.44;;;15.63;100.00
30463;BME280;17256;43.618;25.336;2023-05-20T23:15:59;100580.69;;;14.92;100.00
30463;BME280;17256;43.618;25.336;2023-05-20T23:18:36;100407.56;;;13.86;100.00
30463;BME280;17256;43.618;25.336;2023-05-20T23:21:06;100396.09;;;13.89;100.00
30463;BME280;17256;43.618;25.336;2023-05-20T23:23:36;100254.78;;;13.06;100.00
30463;BME280;17256;43.618;25.336;2023-05-20T23:26:19;100651.09;;;15.51;100.00
30463;BME280;17256;43.618;25.336;2023-05-20T23:28:51;100410.84;;;14.01;100.00
30463;BME280;17256;43.618;25.336;2023-05-20T23:31:28;100453.88;;;14.34;100.00
30463;BME280;17256;43.618;25.336;2023-05-20T23:34:03;100587.06;;;15.29;100.00
30463;BME280;17256;43.618;25.336;2023-05-20T23:36:41;100438.66;;;14.50;100.00
30463;BME280;17256;43.618;25.336;2023-05-20T23:39:34;100249.66;;;13.41;100.00
30463;BME280;17256;43.618;25.336;2023-05-20T23:42:08;100412.19;;;14.35;100.00
